createdAt,value
2022-12-15T00:02:44.170Z,100173.16
2022-12-15T00:05:29.545Z,100168.53
2022-12-15T00:08:14.908Z,100162.72
2022-12-15T00:11:00.097Z,100165.53
2022-12-15T00:13:45.533Z,100162.09
2022-12-15T00:16:32.027Z,100163.16
2022-12-15T00:19:17.308Z,100174.63
2022-12-15T00:22:02.693Z,100170.44
2022-12-15T00:24:49.779Z,100172.22
2022-12-15T00:27:35.481Z,100168.81
2022-12-15T00:30:20.846Z,100174.84
2022-12-15T00:33:07.423Z,100179.69
2022-12-15T00:35:52.475Z,100177.56
2022-12-15T00:38:37.811Z,100171.22
2022-12-15T00:41:06.234Z,100184.00
2022-12-15T00:43:36.022Z,100174.31
2022-12-15T00:46:22.966Z,100170.91
2022-12-15T00:48:51.985Z,100166.72
2022-12-15T00:51:19.256Z,100167.91
2022-12-15T00:54:04.948Z,100165.53
2022-12-15T00:56:50.904Z,100173.78
2022-12-15T00:59:36.048Z,100172.22
2022-12-15T01:02:22.483Z,100168.31
2022-12-15T01:05:09.078Z,100167.78
2022-12-15T01:07:54.436Z,100167.31
2022-12-15T01:10:39.630Z,100173.56
2022-12-15T01:13:25.168Z,100175.19
2022-12-15T01:16:10.820Z,100182.91
2022-12-15T01:18:55.979Z,100176.03
2022-12-15T01:21:25.488Z,100177.69
2022-12-15T01:23:53.862Z,100180.19
2022-12-15T01:26:21.477Z,100169.56
2022-12-15T01:28:49.112Z,100173.50
2022-12-15T01:31:16.882Z,100165.03
2022-12-15T01:33:44.492Z,100163.41
2022-12-15T01:36:12.372Z,100159.22
2022-12-15T01:38:41.313Z,100170.47
2022-12-15T01:41:11.037Z,100169.06
2022-12-15T01:43:41.037Z,100159.88
2022-12-15T01:46:10.420Z,100170.44
2022-12-15T01:48:42.589Z,100166.16
2022-12-15T01:51:15.951Z,100163.72
2022-12-15T01:53:51.579Z,100178.53
2022-12-15T01:56:21.284Z,100174.25
2022-12-15T01:58:52.205Z,100173.47
2022-12-15T02:01:19.909Z,100179.72
2022-12-15T02:03:48.415Z,100183.53
2022-12-15T02:06:18.025Z,100180.31
2022-12-15T02:08:48.415Z,100178.06
2022-12-15T02:11:47.814Z,100182.66
2022-12-15T02:14:25.982Z,100195.13
2022-12-15T02:17:05.691Z,100179.69
2022-12-15T02:20:09.730Z,100178.28
2022-12-15T02:23:01.555Z,100171.72
2022-12-15T02:25:55.844Z,100174.78
2022-12-15T02:28:40.196Z,100179.91
2022-12-15T02:31:32.384Z,100187.00
2022-12-15T02:34:07.296Z,100188.66
2022-12-15T02:36:39.284Z,100195.53
2022-12-15T02:39:07.266Z,100187.97
2022-12-15T02:41:40.663Z,100186.91
2022-12-15T02:44:12.268Z,100183.97
2022-12-15T02:46:55.505Z,100182.09
2022-12-15T02:49:36.388Z,100193.56
2022-12-15T02:52:14.860Z,100192.03
2022-12-15T02:54:58.947Z,100192.06
2022-12-15T02:57:35.399Z,100200.91
2022-12-15T03:00:06.900Z,100198.91
2022-12-15T03:02:38.945Z,100203.63
2022-12-15T03:05:07.590Z,100204.00
2022-12-15T03:07:35.196Z,100200.81
2022-12-15T03:10:06.628Z,100209.78
2022-12-15T03:12:34.279Z,100200.44
2022-12-15T03:15:01.918Z,100202.44
2022-12-15T03:17:29.522Z,100202.66
2022-12-15T03:19:58.470Z,100202.78
2022-12-15T03:22:26.446Z,100202.16
2022-12-15T03:24:54.081Z,100205.00
2022-12-15T03:27:21.662Z,100199.31
2022-12-15T03:29:49.235Z,100208.50
2022-12-15T03:32:16.908Z,100212.78
2022-12-15T03:34:45.227Z,100219.69
2022-12-15T03:37:14.246Z,100214.69
2022-12-15T03:39:41.837Z,100208.16
2022-12-15T03:42:09.491Z,100207.25
2022-12-15T03:44:37.084Z,100199.34
2022-12-15T03:47:04.695Z,100208.81
2022-12-15T03:49:32.342Z,100213.34
2022-12-15T03:51:59.930Z,100219.38
2022-12-15T03:54:28.915Z,100216.91
2022-12-15T03:56:56.494Z,100212.41
2022-12-15T03:59:24.144Z,100214.06
2022-12-15T04:01:51.830Z,100207.88
2022-12-15T04:04:19.462Z,100211.19
2022-12-15T04:06:47.079Z,100205.63
2022-12-15T04:09:14.671Z,100205.34
2022-12-15T04:11:44.270Z,100203.34
2022-12-15T04:14:11.914Z,100214.31
2022-12-15T04:16:39.540Z,100212.50
2022-12-15T04:19:24.591Z,100216.72
2022-12-15T04:21:52.183Z,100209.59
2022-12-15T04:24:37.367Z,100220.66
2022-12-15T04:27:24.130Z,100215.41
2022-12-15T04:30:09.499Z,100224.00
2022-12-15T04:32:54.921Z,100231.50
2022-12-15T04:35:40.018Z,100228.84
2022-12-15T04:38:25.369Z,100239.88
2022-12-15T04:41:10.803Z,100235.97
2022-12-15T04:43:58.464Z,100245.09
2022-12-15T04:46:43.652Z,100242.00
2022-12-15T04:49:28.857Z,100248.34
2022-12-15T04:52:14.047Z,100246.09
2022-12-15T04:54:59.230Z,100251.56
2022-12-15T04:57:44.496Z,100262.19
2022-12-15T05:00:31.850Z,100260.63
2022-12-15T05:03:23.194Z,100262.81
2022-12-15T05:06:08.319Z,100256.19
2022-12-15T05:08:53.499Z,100260.78
2022-12-15T05:11:38.908Z,100260.97
2022-12-15T05:14:24.203Z,100262.13
2022-12-15T05:17:10.472Z,100265.03
2022-12-15T05:19:55.750Z,100254.16
2022-12-15T05:22:41.151Z,100261.38
2022-12-15T05:25:27.151Z,100277.16
2022-12-15T05:28:12.436Z,100285.06
2022-12-15T05:30:57.747Z,100276.44
2022-12-15T05:33:26.835Z,100278.31
2022-12-15T05:35:57.215Z,100278.41
2022-12-15T05:38:24.835Z,100291.31
2022-12-15T05:40:52.430Z,100293.78
2022-12-15T05:43:24.759Z,100289.50
2022-12-15T05:45:54.189Z,100294.63
2022-12-15T05:48:21.817Z,100297.94
2022-12-15T05:50:50.753Z,100305.72
2022-12-15T05:53:18.323Z,100306.56
2022-12-15T05:55:45.957Z,100319.53
2022-12-15T05:58:13.582Z,100316.09
2022-12-15T06:00:41.189Z,100319.66
2022-12-15T06:03:08.812Z,100320.66
2022-12-15T06:05:36.482Z,100332.91
2022-12-15T06:08:05.881Z,100338.22
2022-12-15T06:10:33.511Z,100340.88
2022-12-15T06:13:01.800Z,100341.94
2022-12-15T06:15:29.520Z,100345.13
2022-12-15T06:17:57.103Z,100345.63
2022-12-15T06:20:24.696Z,100349.44
2022-12-15T06:22:52.364Z,100354.91
2022-12-15T06:25:21.276Z,100355.97
2022-12-15T06:27:48.829Z,100354.28
2022-12-15T06:30:16.469Z,100354.91
2022-12-15T06:32:44.039Z,100352.84
2022-12-15T06:35:11.615Z,100348.84
2022-12-15T06:37:39.219Z,100351.66
2022-12-15T06:40:08.187Z,100351.00
2022-12-15T06:42:37.145Z,100360.56
2022-12-15T06:45:05.418Z,100365.88
2022-12-15T06:47:33.040Z,100381.53
2022-12-15T06:50:00.641Z,100380.72
2022-12-15T06:52:28.219Z,100383.53
2022-12-15T06:54:55.810Z,100387.06
2022-12-15T06:57:23.369Z,100386.97
2022-12-15T06:59:52.339Z,100390.59
2022-12-15T07:02:25.192Z,100396.81
2022-12-15T07:04:56.257Z,100398.91
2022-12-15T07:07:23.925Z,100403.69
2022-12-15T07:09:51.556Z,100400.03
2022-12-15T07:12:19.134Z,100405.16
2022-12-15T07:14:53.024Z,100408.47
2022-12-15T07:17:22.423Z,100405.31
2022-12-15T07:19:50.003Z,100408.66
2022-12-15T07:22:17.611Z,100407.28
2022-12-15T07:24:46.000Z,100413.72
2022-12-15T07:27:13.587Z,100418.59
2022-12-15T07:29:41.303Z,100429.41
2022-12-15T07:32:08.886Z,100417.00
2022-12-15T07:34:37.811Z,100428.75
2022-12-15T07:37:05.419Z,100435.28
2022-12-15T07:39:33.131Z,100434.13
2022-12-15T07:42:01.215Z,100449.41
2022-12-15T07:44:29.970Z,100447.34
2022-12-15T07:46:57.568Z,100451.16
2022-12-15T07:49:25.166Z,100455.00
2022-12-15T07:51:58.267Z,100456.22
2022-12-15T07:54:26.500Z,100464.31
2022-12-15T07:56:54.079Z,100467.13
2022-12-15T07:59:21.667Z,100471.06
2022-12-15T08:01:49.559Z,100478.56
2022-12-15T08:04:17.421Z,100469.56
2022-12-15T08:06:45.065Z,100479.75
2022-12-15T08:09:13.997Z,100476.72
2022-12-15T08:11:41.538Z,100476.25
2022-12-15T08:14:15.044Z,100487.06
2022-12-15T08:16:45.318Z,100487.69
2022-12-15T08:19:15.151Z,100483.88
2022-12-15T08:21:44.052Z,100493.63
2022-12-15T08:24:11.669Z,100497.25
2022-12-15T08:26:41.830Z,100498.56
2022-12-15T08:29:48.765Z,100493.50
2022-12-15T08:32:00.306Z,100494.94
2022-12-15T08:34:28.037Z,100504.56
2022-12-15T08:36:55.579Z,100490.72
2022-12-15T08:39:23.169Z,100496.03
2022-12-15T08:41:52.176Z,100497.34
2022-12-15T08:44:19.847Z,100498.56
2022-12-15T08:46:47.374Z,100504.13
2022-12-15T08:49:21.203Z,100504.28
2022-12-15T08:51:50.379Z,100504.50
2022-12-15T08:54:19.116Z,100508.41
2022-12-15T08:56:46.779Z,100512.56
2022-12-15T08:59:15.778Z,100512.56
2022-12-15T09:01:43.551Z,100509.84
2022-12-15T09:04:11.378Z,100515.44
2022-12-15T09:06:38.983Z,100511.00
2022-12-15T09:09:08.780Z,100516.25
2022-12-15T09:11:36.800Z,100512.91
2022-12-15T09:14:04.522Z,100515.50
2022-12-15T09:16:33.520Z,100512.25
2022-12-15T09:19:01.748Z,100517.13
2022-12-15T09:21:30.961Z,100527.03
2022-12-15T09:24:01.565Z,100526.78
2022-12-15T09:26:30.749Z,100525.47
2022-12-15T09:28:58.720Z,100534.13
2022-12-15T09:31:29.247Z,100537.44
2022-12-15T09:34:00.008Z,100539.81
2022-12-15T09:36:28.353Z,100537.16
2022-12-15T09:38:56.097Z,100529.56
2022-12-15T09:41:27.066Z,100538.31
2022-12-15T09:43:58.421Z,100539.97
2022-12-15T09:46:40.407Z,100546.25
2022-12-15T09:49:14.597Z,100547.28
2022-12-15T09:51:49.044Z,100545.50
2022-12-15T09:54:16.689Z,100545.16
2022-12-15T09:56:50.331Z,100553.50
2022-12-15T09:59:30.651Z,100559.88
2022-12-15T10:02:19.694Z,100548.78
2022-12-15T10:04:57.647Z,100549.09
2022-12-15T10:07:32.080Z,100551.53
2022-12-15T10:09:59.849Z,100552.06
2022-12-15T10:12:33.222Z,100555.78
2022-12-15T10:15:14.044Z,100554.47
2022-12-15T10:17:46.424Z,100558.88
2022-12-15T10:20:21.267Z,100558.38
2022-12-15T10:22:50.442Z,100545.16
2022-12-15T10:25:27.484Z,100547.78
2022-12-15T10:28:18.100Z,100563.09
2022-12-15T10:30:52.666Z,100558.69
2022-12-15T10:33:24.076Z,100563.84
2022-12-15T10:35:54.753Z,100558.53
2022-12-15T10:38:26.304Z,100555.66
2022-12-15T10:40:56.875Z,100555.28
2022-12-15T10:43:31.743Z,100548.56
2022-12-15T10:46:13.399Z,100549.38
2022-12-15T10:48:41.561Z,100554.59
2022-12-15T10:51:20.052Z,100555.72
2022-12-15T10:56:50.206Z,100558.78
2022-12-15T10:59:26.170Z,100553.66
2022-12-15T11:01:53.949Z,100562.09
2022-12-15T11:04:28.700Z,100552.03
2022-12-15T11:07:02.410Z,100550.50
2022-12-15T11:09:34.709Z,100560.88
2022-12-15T11:12:20.134Z,100564.81
2022-12-15T11:14:49.357Z,100548.66
2022-12-15T11:17:20.506Z,100564.16
2022-12-15T11:20:01.965Z,100560.56
2022-12-15T11:22:42.571Z,100548.66
2022-12-15T11:25:21.918Z,100558.59
2022-12-15T11:27:51.453Z,100559.03
2022-12-15T11:30:22.163Z,100562.91
2022-12-15T11:32:53.516Z,100570.22
2022-12-15T11:35:28.545Z,100570.22
2022-12-15T11:38:06.576Z,100572.56
2022-12-15T11:40:40.724Z,100564.00
2022-12-15T11:43:44.092Z,100573.41
2022-12-15T11:46:23.752Z,100575.19
2022-12-15T11:49:20.392Z,100573.25
2022-12-15T11:51:57.754Z,100581.28
2022-12-15T11:54:31.074Z,100573.69
2022-12-15T11:57:08.452Z,100579.44
2022-12-15T12:00:02.943Z,100579.44
2022-12-15T12:02:43.665Z,100582.75
2022-12-15T12:05:27.833Z,100585.91
2022-12-15T12:08:07.484Z,100582.63
2022-12-15T12:10:43.893Z,100586.06
2022-12-15T12:13:23.576Z,100579.59
2022-12-15T12:15:58.567Z,100587.03
2022-12-15T12:18:32.483Z,100584.13
2022-12-15T12:21:06.206Z,100585.66
2022-12-15T12:23:39.600Z,100591.06
2022-12-15T12:26:14.382Z,100595.50
2022-12-15T12:28:48.574Z,100590.66
2022-12-15T12:31:27.329Z,100600.06
2022-12-15T12:33:59.717Z,100590.94
2022-12-15T12:36:27.276Z,100597.84
2022-12-15T12:38:56.686Z,100601.03
2022-12-15T12:41:36.438Z,100602.56
2022-12-15T12:44:12.216Z,100608.09
2022-12-15T12:46:46.787Z,100608.78
2022-12-15T12:49:26.799Z,100599.22
2022-12-15T12:51:58.522Z,100602.56
2022-12-15T12:54:45.237Z,100601.72
2022-12-15T12:57:33.875Z,100604.75
2022-12-15T13:00:03.608Z,100602.44
2022-12-15T13:02:46.345Z,100604.50
2022-12-15T13:05:31.266Z,100602.28
2022-12-15T13:08:40.640Z,100611.41
2022-12-15T13:12:00.804Z,100608.94
2022-12-15T13:14:42.203Z,100615.41
2022-12-15T13:17:26.424Z,100608.94
2022-12-15T13:20:29.277Z,100603.13
2022-12-15T13:23:13.063Z,100616.25
2022-12-15T13:25:42.886Z,100612.66
2022-12-15T13:28:31.029Z,100609.75
2022-12-15T13:31:33.199Z,100614.03
2022-12-15T13:34:28.574Z,100617.22
2022-12-15T13:37:01.196Z,100620.75
2022-12-15T13:39:58.813Z,100619.38
2022-12-15T13:45:36.290Z,100602.06
2022-12-15T13:48:16.650Z,100611.16
2022-12-15T13:53:42.877Z,100611.25
2022-12-15T13:56:26.033Z,100616.91
2022-12-15T13:59:02.357Z,100625.03
2022-12-15T14:01:33.026Z,100619.91
2022-12-15T14:04:07.750Z,100616.59
2022-12-15T14:06:38.905Z,100620.44
2022-12-15T14:09:07.795Z,100629.94
2022-12-15T14:11:52.678Z,100635.59
2022-12-15T14:14:24.338Z,100634.69
2022-12-15T14:16:59.410Z,100639.94
2022-12-15T14:19:38.795Z,100637.56
2022-12-15T14:22:27.190Z,100650.09
2022-12-15T14:25:01.508Z,100647.34
2022-12-15T14:27:31.889Z,100651.88
2022-12-15T14:30:29.226Z,100652.78
2022-12-15T14:33:01.448Z,100647.22
2022-12-15T14:35:36.054Z,100657.00
2022-12-15T14:38:07.849Z,100655.59
2022-12-15T14:40:37.502Z,100657.38
2022-12-15T14:43:05.943Z,100659.16
2022-12-15T14:45:33.802Z,100658.63
2022-12-15T14:50:52.640Z,100653.16
2022-12-15T14:53:22.725Z,100659.38
2022-12-15T14:55:51.470Z,100657.69
2022-12-15T14:58:32.209Z,100662.94
2022-12-15T15:01:00.890Z,100660.44
2022-12-15T15:03:07.531Z,100613.56
2022-12-15T15:03:09.925Z,100558.22
2022-12-15T15:03:13.257Z,100613.22
2022-12-15T15:03:37.081Z,100658.09
2022-12-15T15:06:15.548Z,100660.97
2022-12-15T15:08:46.648Z,100671.44
2022-12-15T15:11:26.784Z,100668.69
2022-12-15T15:13:56.826Z,100675.69
2022-12-15T15:16:24.691Z,100674.59
2022-12-15T15:18:55.952Z,100679.72
2022-12-15T15:21:27.869Z,100676.13
2022-12-15T15:24:00.368Z,100685.56
2022-12-15T15:26:28.224Z,100688.03
2022-12-15T15:28:56.228Z,100698.25
2022-12-15T15:31:33.878Z,100697.31
2022-12-15T15:34:05.183Z,100706.81
2022-12-15T15:36:36.728Z,100708.47
2022-12-15T15:39:11.237Z,100704.91
2022-12-15T15:41:39.124Z,100708.22
2022-12-15T15:44:13.501Z,100706.56
2022-12-15T15:46:47.352Z,100709.06
2022-12-15T15:49:17.892Z,100710.84
2022-12-15T15:51:46.892Z,100707.97
2022-12-15T15:54:17.635Z,100717.50
2022-12-15T15:56:45.228Z,100714.16
2022-12-15T15:59:14.563Z,100709.06
2022-12-15T16:01:42.257Z,100707.28
2022-12-15T16:04:10.059Z,100705.34
2022-12-15T16:06:42.090Z,100710.59
2022-12-15T16:09:16.696Z,100706.19
2022-12-15T16:11:45.892Z,100713.91
2022-12-15T16:14:14.561Z,100718.34
2022-12-15T16:16:42.658Z,100714.06
2022-12-15T16:19:11.911Z,100716.53
2022-12-15T16:21:41.547Z,100715.59
2022-12-15T16:24:14.364Z,100721.50
2022-12-15T16:26:47.941Z,100715.22
2022-12-15T16:29:16.558Z,100724.63
2022-12-15T16:31:45.420Z,100722.81
2022-12-15T16:34:13.385Z,100726.16
2022-12-15T16:36:41.887Z,100735.78
2022-12-15T16:39:24.556Z,100726.25
2022-12-15T16:41:55.215Z,100735.09
2022-12-15T16:44:23.095Z,100733.66
2022-12-15T16:46:51.305Z,100732.13
2022-12-15T16:49:18.981Z,100725.13
2022-12-15T16:51:48.963Z,100730.59
2022-12-15T16:54:20.769Z,100735.59
2022-12-15T16:56:48.454Z,100734.75
2022-12-15T16:59:35.036Z,100738.22
2022-12-15T17:02:18.399Z,100741.19
2022-12-15T17:04:46.084Z,100740.34
2022-12-15T17:07:19.938Z,100741.34
2022-12-15T17:09:48.450Z,100747.50
2022-12-15T17:12:17.853Z,100748.97
2022-12-15T17:14:47.068Z,100747.19
2022-12-15T17:17:15.732Z,100753.41
2022-12-15T17:19:57.935Z,100751.03
2022-12-15T17:22:32.662Z,100762.81
2022-12-15T17:25:00.302Z,100767.09
2022-12-15T17:27:30.092Z,100776.63
2022-12-15T17:30:00.484Z,100778.25
2022-12-15T17:32:28.117Z,100779.47
2022-12-15T17:34:55.812Z,100777.56
2022-12-15T17:37:26.194Z,100775.09
2022-12-15T17:39:56.825Z,100778.91
2022-12-15T17:42:24.400Z,100779.72
2022-12-15T17:44:52.060Z,100785.91
2022-12-15T17:47:21.025Z,100787.69
2022-12-15T17:49:48.609Z,100781.66
2022-12-15T17:52:25.348Z,100792.81
2022-12-15T17:54:53.725Z,100792.94
2022-12-15T17:57:21.549Z,100810.31
2022-12-15T17:59:49.320Z,100812.81
2022-12-15T18:02:17.152Z,100810.31
2022-12-15T18:04:46.675Z,100816.97
2022-12-15T18:07:17.687Z,100812.59
2022-12-15T18:09:45.268Z,100813.28
2022-12-15T18:12:19.640Z,100819.09
2022-12-15T18:14:47.722Z,100824.34
2022-12-15T18:17:15.393Z,100825.03
2022-12-15T18:19:42.932Z,100831.97
2022-12-15T18:22:15.348Z,100817.06
2022-12-15T18:24:43.181Z,100826.59
2022-12-15T18:27:20.135Z,100827.41
2022-12-15T18:29:47.700Z,100832.50
2022-12-15T18:32:17.029Z,100839.56
2022-12-15T18:34:45.013Z,100835.53
2022-12-15T18:37:16.517Z,100838.84
2022-12-15T18:39:44.251Z,100840.50
2022-12-15T18:42:15.392Z,100838.00
2022-12-15T18:44:46.161Z,100850.84
2022-12-15T18:47:17.702Z,100855.97
2022-12-15T18:49:45.505Z,100855.84
2022-12-15T18:52:18.471Z,100854.66
2022-12-15T18:54:47.360Z,100852.72
2022-12-15T18:57:28.181Z,100856.09
2022-12-15T18:59:58.729Z,100871.56
2022-12-15T19:02:26.451Z,100876.66
2022-12-15T19:04:54.084Z,100881.19
2022-12-15T19:07:23.027Z,100875.97
2022-12-15T19:09:50.860Z,100874.88
2022-12-15T19:12:18.639Z,100879.88
2022-12-15T19:14:47.333Z,100890.34
2022-12-15T19:17:34.489Z,100886.91
2022-12-15T19:20:20.153Z,100893.22
2022-12-15T19:22:49.889Z,100898.09
2022-12-15T19:25:25.372Z,100898.66
2022-12-15T19:27:58.294Z,100913.31
2022-12-15T19:30:28.320Z,100913.91
2022-12-15T19:32:56.392Z,100919.72
2022-12-15T19:35:24.714Z,100918.66
2022-12-15T19:37:55.444Z,100927.34
2022-12-15T19:40:27.353Z,100927.25
2022-12-15T19:42:55.677Z,100933.19
2022-12-15T19:45:26.081Z,100927.34
2022-12-15T19:47:54.032Z,100931.06
2022-12-15T19:50:23.412Z,100930.22
2022-12-15T19:52:57.494Z,100942.22
2022-12-15T19:55:29.327Z,100944.84
2022-12-15T19:57:57.199Z,100942.81
2022-12-15T20:00:25.150Z,100946.38
2022-12-15T20:02:54.943Z,100950.69
2022-12-15T20:05:23.578Z,100950.44
2022-12-15T20:07:52.950Z,100955.34
2022-12-15T20:10:29.537Z,100957.13
2022-12-15T20:12:59.745Z,100966.28
2022-12-15T20:15:27.379Z,100961.72
2022-12-15T20:17:56.645Z,100964.25
2022-12-15T20:20:26.776Z,100964.00
2022-12-15T20:22:57.413Z,100961.13
2022-12-15T20:25:29.587Z,100966.38
2022-12-15T20:27:57.632Z,100970.41
2022-12-15T20:30:27.082Z,100978.84
2022-12-15T20:32:54.974Z,100982.41
2022-12-15T20:35:23.695Z,100985.03
2022-12-15T20:37:52.493Z,100979.81
2022-12-15T20:40:23.004Z,100989.09
2022-12-15T20:42:53.558Z,100984.44
2022-12-15T20:45:23.754Z,100995.63
2022-12-15T20:47:53.406Z,100983.25
2022-12-15T20:50:27.860Z,100993.84
2022-12-15T20:52:55.569Z,101003.97
2022-12-15T20:55:23.379Z,101003.16
2022-12-15T20:57:52.288Z,100992.50
2022-12-15T21:00:20.011Z,101004.78
2022-12-15T21:02:47.939Z,101002.75
2022-12-15T21:05:19.996Z,100998.72
2022-12-15T21:07:48.644Z,100997.75
2022-12-15T21:10:18.354Z,100989.06
2022-12-15T21:12:50.212Z,100994.06
2022-12-15T21:15:21.710Z,100999.19
2022-12-15T21:17:57.251Z,100994.63
2022-12-15T21:20:39.597Z,101000.97
2022-12-15T21:23:07.353Z,100998.50
2022-12-15T21:25:35.377Z,101000.97
2022-12-15T21:28:02.936Z,101003.59
2022-12-15T21:30:31.910Z,101009.94
2022-12-15T21:32:59.520Z,101009.94
2022-12-15T21:35:30.285Z,101009.09
2022-12-15T21:37:59.733Z,101009.78
2022-12-15T21:40:29.400Z,101015.88
2022-12-15T21:42:57.913Z,101011.47
2022-12-15T21:45:27.117Z,101024.47
2022-12-15T21:48:13.612Z,101024.72
2022-12-15T21:50:44.530Z,101026.38
2022-12-15T21:53:16.737Z,101032.59
2022-12-15T21:55:46.785Z,101031.50
2022-12-15T21:58:19.569Z,101039.38
2022-12-15T22:00:47.709Z,101044.38
2022-12-15T22:03:16.698Z,101044.47
2022-12-15T22:05:44.244Z,101041.59
2022-12-15T22:08:15.720Z,101042.34
2022-12-15T22:10:45.195Z,101049.38
2022-12-15T22:13:17.592Z,101058.88
2022-12-15T22:15:45.992Z,101053.53
2022-12-15T22:18:19.457Z,101055.22
2022-12-15T22:20:50.297Z,101060.31
2022-12-15T22:23:18.882Z,101075.09
2022-12-15T22:25:47.044Z,101071.75
2022-12-15T22:28:21.625Z,101064.63
2022-12-15T22:30:50.294Z,101076.66
2022-12-15T22:33:21.815Z,101075.91
2022-12-15T22:35:52.608Z,101067.81
2022-12-15T22:38:24.152Z,101071.41
2022-12-15T22:40:55.532Z,101071.41
2022-12-15T22:43:26.789Z,101075.91
2022-12-15T22:45:56.451Z,101072.09
2022-12-15T22:48:34.094Z,101081.06
2022-12-15T22:51:04.580Z,101074.72
2022-12-15T22:53:34.352Z,101070.66
2022-12-15T22:56:05.946Z,101069.88
2022-12-15T22:58:37.111Z,101065.69
2022-12-15T23:01:06.849Z,101066.50
2022-12-15T23:03:35.496Z,101072.97
2022-12-15T23:06:05.592Z,101080.72
2022-12-15T23:08:33.687Z,101073.09
2022-12-15T23:11:18.623Z,101070.59
2022-12-15T23:13:46.343Z,101067.72
2022-12-15T23:16:22.187Z,101072.72
2022-12-15T23:18:51.665Z,101077.16
2022-12-15T23:21:21.831Z,101068.72
2022-12-15T23:23:49.884Z,101075.03
2022-12-15T23:26:19.857Z,101070.72
2022-12-15T23:28:47.419Z,101080.38
2022-12-15T23:31:15.048Z,101077.91
2022-12-15T23:33:43.101Z,101077.31
2022-12-15T23:36:12.106Z,101077.78
2022-12-15T23:38:41.045Z,101074.09
2022-12-15T23:41:08.605Z,101070.63
2022-12-15T23:43:36.281Z,101076.94
2022-12-15T23:46:06.225Z,101073.38
2022-12-15T23:48:35.753Z,101081.59
2022-12-15T23:51:05.318Z,101078.13
2022-12-15T23:53:33.314Z,101078.50
2022-12-15T23:56:08.192Z,101080.66
2022-12-15T23:58:35.777Z,101075.66
